createdAt,value
2018-01-08T00:02:02.827Z,35.97
2018-01-08T00:04:30.391Z,36.85
2018-01-08T00:06:57.883Z,36.60
2018-01-08T00:09:26.142Z,38.55
2018-01-08T00:11:54.415Z,38.72
2018-01-08T00:14:21.931Z,37.97
2018-01-08T00:16:49.422Z,36.20
2018-01-08T00:19:16.934Z,35.88
2018-01-08T00:21:44.470Z,36.75
2018-01-08T00:24:12.735Z,35.35
2018-01-08T00:26:40.994Z,38.50
2018-01-08T00:29:08.504Z,39.25
2018-01-08T00:31:35.998Z,39.08
2018-01-08T00:34:03.495Z,41.25
2018-01-08T00:36:31.770Z,39.25
2018-01-08T00:39:00.048Z,40.05
2018-01-08T00:41:27.551Z,41.65
2018-01-08T00:43:55.043Z,40.28
2018-01-08T00:46:22.583Z,39.65
2018-01-08T00:48:50.092Z,44.30
2018-01-08T00:51:17.603Z,41.40
2018-01-08T00:53:45.099Z,40.78
2018-01-08T00:56:13.376Z,42.95
2018-01-08T00:58:41.651Z,41.85
2018-01-08T01:01:09.915Z,41.35
2018-01-08T01:03:38.228Z,41.85
2018-01-08T01:06:05.721Z,40.03
2018-01-08T01:08:33.218Z,42.60
2018-01-08T01:11:01.495Z,41.05
2018-01-08T01:13:29.772Z,43.25
2018-01-08T01:15:58.035Z,41.42
2018-01-08T01:18:26.316Z,42.28
2018-01-08T01:20:54.625Z,41.47
2018-01-08T01:23:22.122Z,41.60
2018-01-08T01:25:49.643Z,40.75
2018-01-08T01:28:17.137Z,41.13
2018-01-08T01:30:44.631Z,38.35
2018-01-08T01:33:12.894Z,40.35
2018-01-08T01:35:41.163Z,41.00
2018-01-08T01:38:08.655Z,39.95
2018-01-08T01:40:36.171Z,42.13
2018-01-08T01:43:04.438Z,38.95
2018-01-08T01:45:31.950Z,42.05
2018-01-08T01:47:59.463Z,39.95
2018-01-08T01:50:26.966Z,40.17
2018-01-08T01:52:54.477Z,40.63
2018-01-08T01:55:23.478Z,39.13
2018-01-08T01:57:52.699Z,41.75
2018-01-08T02:00:20.979Z,41.92
2018-01-08T02:02:49.259Z,42.17
2018-01-08T02:05:16.831Z,38.45
2018-01-08T02:07:44.295Z,39.20
2018-01-08T02:10:11.795Z,39.60
2018-01-08T02:12:39.302Z,37.05
2018-01-08T02:15:06.800Z,40.47
2018-01-08T02:17:34.294Z,38.97
2018-01-08T02:20:02.560Z,39.63
2018-01-08T02:22:30.074Z,39.10
2018-01-08T02:24:57.589Z,39.38
2018-01-08T02:27:25.854Z,41.17
2018-01-08T02:29:53.370Z,40.30
2018-01-08T02:32:20.887Z,38.58
2018-01-08T02:34:49.154Z,41.42
2018-01-08T02:37:17.415Z,38.90
2018-01-08T02:39:44.910Z,39.35
2018-01-08T02:42:12.410Z,39.72
2018-01-08T02:44:39.906Z,38.58
2018-01-08T02:47:08.175Z,37.90
2018-01-08T02:49:35.691Z,37.75
2018-01-08T02:52:03.194Z,35.15
2018-01-08T02:54:31.482Z,39.83
2018-01-08T02:56:59.746Z,37.20
2018-01-08T02:59:28.032Z,39.92
2018-01-08T03:01:56.379Z,39.20
2018-01-08T03:04:24.081Z,39.05
2018-01-08T03:06:52.354Z,39.85
2018-01-08T03:09:20.611Z,37.75
2018-01-08T03:11:48.114Z,37.97
2018-01-08T03:14:15.619Z,40.85
2018-01-08T03:16:43.116Z,38.30
2018-01-08T03:19:10.627Z,40.10
2018-01-08T03:21:38.135Z,40.08
2018-01-08T03:24:05.655Z,37.65
2018-01-08T03:26:33.152Z,38.78
2018-01-08T03:29:00.652Z,40.35
2018-01-08T03:31:28.191Z,39.42
2018-01-08T03:33:55.718Z,40.15
2018-01-08T03:36:23.984Z,39.03
2018-01-08T03:38:52.263Z,40.63
2018-01-08T03:41:20.530Z,40.53
2018-01-08T03:43:48.796Z,39.97
2018-01-08T03:46:16.303Z,39.53
2018-01-08T03:48:43.810Z,41.47
2018-01-08T03:51:11.320Z,40.63
2018-01-08T03:53:38.950Z,40.63
2018-01-08T03:56:07.218Z,40.60
2018-01-08T03:58:35.483Z,39.97
2018-01-08T04:01:02.995Z,40.30
2018-01-08T04:03:30.495Z,42.13
2018-01-08T04:05:58.004Z,38.55
2018-01-08T04:08:25.503Z,40.60
2018-01-08T04:10:53.204Z,41.08
2018-01-08T04:13:21.649Z,41.45
2018-01-08T04:15:49.150Z,39.05
2018-01-08T04:18:16.656Z,40.70
2018-01-08T04:20:44.172Z,40.50
2018-01-08T04:23:11.726Z,40.75
2018-01-08T04:25:39.226Z,41.37
2018-01-08T04:28:06.726Z,40.80
2018-01-08T04:30:35.002Z,40.67
2018-01-08T04:33:03.271Z,43.40
2018-01-08T04:35:31.546Z,41.83
2018-01-08T04:37:59.051Z,38.45
2018-01-08T04:40:26.570Z,39.92
2018-01-08T04:42:55.060Z,40.03
2018-01-08T04:45:23.322Z,40.80
2018-01-08T04:47:50.811Z,41.40
2018-01-08T04:50:18.307Z,40.85
2018-01-08T04:52:45.807Z,40.05
2018-01-08T04:55:14.071Z,44.30
2018-01-08T04:57:41.567Z,41.45
2018-01-08T05:00:09.114Z,40.42
2018-01-08T05:02:36.617Z,39.42
2018-01-08T05:05:04.223Z,41.15
2018-01-08T05:07:32.501Z,39.35
2018-01-08T05:10:00.762Z,37.45
2018-01-08T05:12:29.026Z,37.58
2018-01-08T05:14:56.539Z,38.50
2018-01-08T05:17:24.045Z,37.30
2018-01-08T05:19:51.538Z,37.78
2018-01-08T05:22:19.043Z,37.80
2018-01-08T05:24:46.560Z,37.13
2018-01-08T05:27:14.203Z,35.08
2018-01-08T05:29:42.587Z,37.45
2018-01-08T05:32:10.099Z,35.30
2018-01-08T05:34:37.610Z,37.63
2018-01-08T05:37:05.111Z,35.85
2018-01-08T05:39:32.611Z,39.65
2018-01-08T05:42:00.883Z,38.58
2018-01-08T05:44:29.151Z,35.78
2018-01-08T05:46:56.671Z,35.17
2018-01-08T05:49:24.183Z,34.88
2018-01-08T05:51:52.445Z,33.88
2018-01-08T05:54:20.715Z,34.90
2018-01-08T05:56:48.221Z,32.92
2018-01-08T05:59:15.742Z,33.92
2018-01-08T06:01:44.011Z,30.60
2018-01-08T06:04:11.513Z,33.90
2018-01-08T06:06:39.015Z,32.42
2018-01-08T06:09:06.559Z,33.30
2018-01-08T06:11:34.163Z,32.60
2018-01-08T06:14:02.431Z,33.47
2018-01-08T06:16:30.712Z,33.33
2018-01-08T06:18:58.994Z,31.52
2018-01-08T06:21:27.254Z,32.28
2018-01-08T06:23:55.527Z,32.05
2018-01-08T06:26:23.786Z,33.20
2018-01-08T06:28:51.290Z,33.15
2018-01-08T06:31:18.939Z,33.50
2018-01-08T06:33:47.207Z,35.10
2018-01-08T06:36:15.491Z,34.15
2018-01-08T06:38:43.764Z,30.80
2018-01-08T06:41:12.142Z,31.92
2018-01-08T06:43:40.398Z,32.10
2018-01-08T06:46:09.423Z,31.90
2018-01-08T06:48:37.679Z,32.15
2018-01-08T06:51:05.198Z,30.62
2018-01-08T06:53:32.706Z,30.98
2018-01-08T06:56:01.196Z,31.85
2018-01-08T06:58:29.451Z,31.10
2018-01-08T07:00:57.740Z,31.52
2018-01-08T07:03:26.119Z,30.98
2018-01-08T07:05:54.385Z,30.67
2018-01-08T07:08:22.655Z,30.02
2018-01-08T07:10:52.514Z,29.52
2018-01-08T07:13:20.150Z,29.08
2018-01-08T07:15:48.420Z,26.75
2018-01-08T07:18:16.724Z,28.40
2018-01-08T07:20:44.219Z,27.35
2018-01-08T07:23:11.766Z,26.08
2018-01-08T07:25:39.267Z,27.25
2018-01-08T07:28:07.551Z,27.95
2018-01-08T07:30:35.814Z,28.00
2018-01-08T07:33:03.363Z,26.30
2018-01-08T07:35:30.863Z,27.08
2018-01-08T07:37:58.371Z,26.90
2018-01-08T07:40:25.875Z,28.42
2018-01-08T07:42:53.386Z,27.13
2018-01-08T07:45:20.903Z,27.95
2018-01-08T07:47:48.403Z,30.23
2018-01-08T07:50:16.087Z,28.02
2018-01-08T07:52:43.587Z,26.37
2018-01-08T07:55:11.082Z,25.30
2018-01-08T07:57:38.585Z,26.58
2018-01-08T08:00:06.236Z,25.10
2018-01-08T08:02:34.503Z,26.08
2018-01-08T08:05:02.772Z,24.75
2018-01-08T08:07:31.271Z,24.63
2018-01-08T08:09:59.551Z,23.90
2018-01-08T08:12:27.835Z,24.25
2018-01-08T08:14:55.334Z,23.27
2018-01-08T08:17:22.842Z,24.65
2018-01-08T08:19:52.662Z,24.80
2018-01-08T08:22:20.921Z,24.60
2018-01-08T08:24:49.204Z,23.67
2018-01-08T08:27:17.510Z,23.12
2018-01-08T08:29:45.022Z,25.15
2018-01-08T08:32:12.529Z,23.35
2018-01-08T08:34:40.037Z,25.88
2018-01-08T08:37:07.531Z,25.00
2018-01-08T08:39:35.045Z,23.42
2018-01-08T08:42:02.574Z,21.30
2018-01-08T08:44:30.067Z,22.10
2018-01-08T08:46:57.590Z,22.75
2018-01-08T08:49:25.123Z,23.45
2018-01-08T08:51:52.619Z,23.90
2018-01-08T08:54:20.113Z,22.20
2018-01-08T08:56:48.387Z,24.02
2018-01-08T08:59:15.884Z,22.45
2018-01-08T09:01:43.382Z,21.37
2018-01-08T09:04:10.879Z,23.62
2018-01-08T09:06:39.143Z,21.67
2018-01-08T09:09:07.412Z,23.25
2018-01-08T09:11:34.910Z,22.25
2018-01-08T09:14:02.428Z,23.20
2018-01-08T09:16:29.938Z,22.80
2018-01-08T09:18:57.451Z,21.67
2018-01-08T09:21:25.719Z,21.80
2018-01-08T09:23:53.223Z,21.50
2018-01-08T09:26:20.768Z,21.40
2018-01-08T09:28:48.267Z,22.85
2018-01-08T09:31:15.779Z,22.00
2018-01-08T09:33:44.058Z,20.90
2018-01-08T09:36:11.875Z,20.52
2018-01-08T09:38:39.371Z,22.90
2018-01-08T09:41:07.655Z,21.95
2018-01-08T09:43:35.935Z,23.52
2018-01-08T09:46:03.435Z,21.48
2018-01-08T09:48:30.941Z,20.75
2018-01-08T09:50:59.269Z,21.55
2018-01-08T09:53:26.739Z,21.85
2018-01-08T09:55:54.235Z,20.00
2018-01-08T09:58:22.500Z,18.55
2018-01-08T10:00:50.766Z,21.15
2018-01-08T10:03:31.043Z,20.25
2018-01-08T10:06:11.503Z,20.33
2018-01-08T10:08:51.506Z,19.10
2018-01-08T10:11:31.037Z,20.83
2018-01-08T10:14:10.389Z,19.42
2018-01-08T10:16:49.951Z,20.23
2018-01-08T10:19:29.606Z,21.73
2018-01-08T10:21:57.883Z,20.90
2018-01-08T10:24:26.152Z,20.37
2018-01-08T10:26:54.430Z,21.52
2018-01-08T10:29:22.695Z,20.67
2018-01-08T10:31:50.971Z,19.92
2018-01-08T10:34:18.476Z,20.08
2018-01-08T10:36:45.975Z,19.30
2018-01-08T10:39:13.475Z,20.37
2018-01-08T10:41:47.355Z,20.35
2018-01-08T10:44:20.658Z,20.52
2018-01-08T10:46:55.383Z,19.98
2018-01-08T10:49:28.639Z,20.00
2018-01-08T10:51:55.665Z,19.83
2018-01-08T10:54:34.850Z,19.90
2018-01-08T10:57:02.367Z,19.73
2018-01-08T10:59:29.862Z,19.30
2018-01-08T11:02:03.188Z,21.15
2018-01-08T11:04:31.524Z,20.77
2018-01-08T11:06:59.019Z,19.70
2018-01-08T11:09:27.287Z,18.77
2018-01-08T11:11:55.550Z,18.70
2018-01-08T11:14:23.051Z,21.48
2018-01-08T11:16:50.586Z,21.42
2018-01-08T11:19:18.854Z,20.30
2018-01-08T11:21:47.119Z,19.02
2018-01-08T11:24:14.620Z,19.20
2018-01-08T11:26:42.136Z,18.77
2018-01-08T11:29:09.648Z,20.12
2018-01-08T11:31:37.159Z,20.88
2018-01-08T11:34:04.665Z,19.40
2018-01-08T11:36:32.174Z,18.67
2018-01-08T11:38:59.687Z,18.60
2018-01-08T11:41:27.415Z,19.60
2018-01-08T11:43:55.674Z,17.67
2018-01-08T11:46:23.175Z,18.55
2018-01-08T11:48:50.692Z,19.90
2018-01-08T11:51:18.195Z,19.40
2018-01-08T11:53:45.698Z,17.30
2018-01-08T11:56:13.190Z,16.55
2018-01-08T11:58:40.839Z,17.00
2018-01-08T12:01:11.655Z,15.85
2018-01-08T12:03:40.082Z,17.05
2018-01-08T12:06:07.588Z,14.80
2018-01-08T12:08:35.108Z,15.77
2018-01-08T12:11:02.608Z,16.00
2018-01-08T12:13:30.107Z,15.45
2018-01-08T12:15:57.610Z,15.25
2018-01-08T12:18:25.132Z,15.25
2018-01-08T12:20:52.626Z,14.70
2018-01-08T12:23:20.127Z,15.63
2018-01-08T12:25:48.599Z,14.60
2018-01-08T12:28:16.879Z,15.10
2018-01-08T12:30:45.147Z,14.13
2018-01-08T12:33:13.459Z,14.93
2018-01-08T12:35:40.963Z,14.38
2018-01-08T12:38:08.507Z,15.15
2018-01-08T12:40:36.214Z,14.38
2018-01-08T12:43:04.483Z,12.95
2018-01-08T12:45:32.739Z,13.55
2018-01-08T12:48:00.329Z,14.90
2018-01-08T12:50:27.811Z,13.93
2018-01-08T12:52:55.316Z,14.63
2018-01-08T12:55:22.845Z,13.23
2018-01-08T12:57:50.346Z,13.73
2018-01-08T13:00:18.631Z,13.98
2018-01-08T13:02:46.911Z,13.48
2018-01-08T13:05:14.443Z,14.30
2018-01-08T13:07:41.944Z,13.65
2018-01-08T13:10:09.451Z,13.45
2018-01-08T13:12:37.028Z,14.48
2018-01-08T13:15:05.307Z,12.95
2018-01-08T13:17:32.822Z,13.55
2018-01-08T13:20:00.377Z,15.57
2018-01-08T13:22:27.883Z,13.48
2018-01-08T13:24:55.391Z,14.02
2018-01-08T13:27:22.931Z,13.20
2018-01-08T13:29:51.177Z,14.45
2018-01-08T13:32:19.574Z,14.18
2018-01-08T13:34:47.856Z,13.93
2018-01-08T13:37:15.355Z,14.27
2018-01-08T13:39:43.075Z,14.18
2018-01-08T13:42:11.354Z,13.98
2018-01-08T13:44:38.887Z,14.23
2018-01-08T13:47:06.389Z,14.13
2018-01-08T13:49:33.899Z,13.25
2018-01-08T13:52:01.392Z,13.00
2018-01-08T13:54:28.927Z,14.18
2018-01-08T13:56:57.195Z,11.70
2018-01-08T13:59:24.700Z,12.20
2018-01-08T14:01:52.199Z,12.93
2018-01-08T14:04:19.724Z,12.93
2018-01-08T14:06:47.259Z,12.85
2018-01-08T14:09:14.790Z,11.70
2018-01-08T14:11:42.580Z,13.20
2018-01-08T14:14:10.347Z,12.95
2018-01-08T14:16:37.892Z,12.55
2018-01-08T14:19:06.159Z,13.27
2018-01-08T14:21:34.432Z,13.15
2018-01-08T14:24:02.715Z,14.00
2018-01-08T14:26:31.041Z,14.02
2018-01-08T14:28:58.591Z,12.70
2018-01-08T14:31:26.090Z,14.07
2018-01-08T14:33:53.596Z,14.52
2018-01-08T14:36:21.107Z,13.40
2018-01-08T14:38:48.604Z,14.85
2018-01-08T14:41:16.102Z,13.45
2018-01-08T14:43:43.603Z,13.88
2018-01-08T14:46:11.872Z,14.02
2018-01-08T14:48:40.146Z,14.60
2018-01-08T14:51:07.648Z,14.73
2018-01-08T14:53:36.152Z,14.40
2018-01-08T14:56:03.655Z,15.13
2018-01-08T14:58:31.926Z,13.50
2018-01-08T15:01:00.203Z,13.85
2018-01-08T15:03:28.503Z,15.25
2018-01-08T15:05:56.012Z,16.15
2018-01-08T15:08:23.508Z,15.70
2018-01-08T15:10:52.614Z,15.00
2018-01-08T15:13:20.113Z,14.40
2018-01-08T15:15:47.631Z,14.65
2018-01-08T15:18:15.142Z,15.13
2018-01-08T15:20:42.646Z,14.80
2018-01-08T15:23:10.164Z,15.10
2018-01-08T15:25:37.663Z,14.77
2018-01-08T15:28:05.203Z,14.77
2018-01-08T15:30:33.467Z,15.02
2018-01-08T15:33:00.975Z,15.02
2018-01-08T15:35:28.513Z,15.00
2018-01-08T15:37:56.007Z,15.65
2018-01-08T15:40:23.502Z,16.33
2018-01-08T15:42:51.019Z,16.85
2018-01-08T15:45:18.518Z,16.87
2018-01-08T15:47:46.016Z,16.65
2018-01-08T15:50:13.651Z,15.32
2018-01-08T15:52:41.955Z,16.60
2018-01-08T15:55:10.407Z,16.05
2018-01-08T15:57:38.679Z,14.90
2018-01-08T16:00:06.948Z,17.48
2018-01-08T16:02:35.236Z,16.92
2018-01-08T16:05:03.503Z,17.45
2018-01-08T16:07:31.779Z,15.98
2018-01-08T16:10:00.073Z,15.07
2018-01-08T16:12:28.344Z,16.33
2018-01-08T16:14:56.611Z,17.15
2018-01-08T16:17:24.871Z,15.80
2018-01-08T16:19:53.878Z,16.40
2018-01-08T16:22:22.234Z,17.25
2018-01-08T16:24:49.735Z,16.12
2018-01-08T16:27:17.247Z,17.98
2018-01-08T16:29:44.753Z,16.62
2018-01-08T16:32:12.292Z,18.10
2018-01-08T16:34:40.783Z,19.08
2018-01-08T16:37:09.056Z,18.23
2018-01-08T16:39:37.323Z,18.12
2018-01-08T16:42:04.819Z,18.42
2018-01-08T16:44:32.866Z,19.25
2018-01-08T16:47:01.132Z,18.10
2018-01-08T16:49:29.432Z,18.20
2018-01-08T16:51:56.954Z,19.83
2018-01-08T16:54:25.270Z,19.35
2018-01-08T16:56:52.768Z,19.05
2018-01-08T16:59:21.327Z,20.00
2018-01-08T17:01:48.831Z,23.67
2018-01-08T17:04:16.332Z,23.23
2018-01-08T17:06:43.868Z,22.52
2018-01-08T17:09:12.148Z,20.02
2018-01-08T17:11:40.427Z,24.58
2018-01-08T17:14:08.692Z,19.75
2018-01-08T17:16:37.146Z,21.55
2018-01-08T17:19:04.691Z,21.90
2018-01-08T17:21:32.192Z,21.10
2018-01-08T17:24:00.533Z,22.80
2018-01-08T17:26:28.242Z,19.83
2018-01-08T17:28:56.512Z,21.10
2018-01-08T17:31:24.998Z,19.25
2018-01-08T17:33:53.308Z,20.25
2018-01-08T17:36:20.830Z,32.72
2018-01-08T17:38:49.094Z,23.98
2018-01-08T17:41:17.380Z,21.17
2018-01-08T17:43:45.642Z,20.02
2018-01-08T17:46:13.144Z,20.67
2018-01-08T17:48:40.652Z,20.37
2018-01-08T17:51:08.157Z,22.15
2018-01-08T17:53:35.676Z,21.27
2018-01-08T17:56:03.187Z,22.23
2018-01-08T17:58:30.704Z,21.33
2018-01-08T18:00:58.979Z,21.62
2018-01-08T18:03:27.335Z,22.87
2018-01-08T18:05:54.827Z,21.75
2018-01-08T18:08:23.090Z,22.85
2018-01-08T18:10:51.355Z,22.85
2018-01-08T18:13:18.854Z,21.70
2018-01-08T18:15:46.355Z,21.45
2018-01-08T18:18:13.873Z,22.70
2018-01-08T18:20:41.383Z,23.58
2018-01-08T18:23:08.880Z,24.67
2018-01-08T18:25:36.379Z,24.83
2018-01-08T18:28:03.922Z,25.35
2018-01-08T18:30:31.423Z,23.62
2018-01-08T18:32:58.939Z,25.20
2018-01-08T18:35:26.441Z,26.58
2018-01-08T18:37:53.947Z,26.60
2018-01-08T18:40:21.578Z,25.73
2018-01-08T18:42:49.966Z,28.12
2018-01-08T18:45:17.463Z,28.58
2018-01-08T18:47:44.956Z,27.08
2018-01-08T18:50:13.219Z,29.70
2018-01-08T18:52:42.238Z,27.23
2018-01-08T18:55:10.559Z,34.38
2018-01-08T18:57:38.059Z,29.92
2018-01-08T19:00:05.558Z,29.42
2018-01-08T19:02:33.068Z,28.98
2018-01-08T19:05:00.562Z,31.37
2018-01-08T19:07:28.204Z,32.50
2018-01-08T19:09:56.471Z,30.60
2018-01-08T19:12:24.766Z,31.35
2018-01-08T19:14:53.069Z,35.15
2018-01-08T19:17:20.611Z,31.75
2018-01-08T19:19:48.127Z,32.33
2018-01-08T19:22:15.822Z,33.08
2018-01-08T19:24:44.113Z,30.90
2018-01-08T19:27:11.631Z,28.33
2018-01-08T19:29:39.159Z,33.72
2018-01-08T19:32:06.655Z,34.47
2018-01-08T19:34:34.171Z,30.70
2018-01-08T19:37:01.684Z,27.65
2018-01-08T19:39:29.952Z,28.10
2018-01-08T19:41:58.237Z,31.27
2018-01-08T19:44:26.503Z,30.40
2018-01-08T19:46:54.787Z,33.15
2018-01-08T19:49:23.080Z,30.65
2018-01-08T19:51:51.347Z,30.17
2018-01-08T19:54:19.634Z,30.35
2018-01-08T19:56:47.197Z,31.62
2018-01-08T19:59:14.699Z,29.58
2018-01-08T20:01:42.200Z,30.85
2018-01-08T20:04:10.689Z,30.33
2018-01-08T20:06:38.215Z,28.87
2018-01-08T20:09:05.716Z,33.83
2018-01-08T20:11:33.215Z,31.00
2018-01-08T20:14:00.720Z,31.23
2018-01-08T20:16:29.014Z,31.98
2018-01-08T20:18:56.528Z,33.55
2018-01-08T20:21:24.054Z,31.70
2018-01-08T20:23:51.594Z,32.33
2018-01-08T20:26:19.111Z,31.10
2018-01-08T20:28:46.633Z,32.17
2018-01-08T20:31:14.144Z,31.17
2018-01-08T20:33:42.672Z,31.95
2018-01-08T20:36:10.182Z,32.00
2018-01-08T20:38:38.487Z,33.13
2018-01-08T20:41:06.009Z,30.80
2018-01-08T20:43:34.299Z,32.75
2018-01-08T20:46:02.579Z,30.17
2018-01-08T20:48:30.079Z,30.48
2018-01-08T20:50:57.591Z,32.78
2018-01-08T20:53:25.901Z,31.70
2018-01-08T20:55:53.403Z,31.80
2018-01-08T20:58:21.706Z,34.45
2018-01-08T21:00:50.001Z,32.25
2018-01-08T21:03:17.500Z,32.65
2018-01-08T21:05:45.022Z,31.33
2018-01-08T21:08:12.540Z,32.00
2018-01-08T21:10:40.039Z,35.55
2018-01-08T21:13:07.548Z,33.70
2018-01-08T21:15:35.053Z,32.95
2018-01-08T21:18:02.691Z,34.60
2018-01-08T21:20:30.997Z,35.10
2018-01-08T21:22:58.501Z,34.15
2018-01-08T21:25:26.005Z,35.97
2018-01-08T21:27:53.503Z,35.13
2018-01-08T21:30:21.018Z,34.08
2018-01-08T21:32:48.527Z,35.65
2018-01-08T21:35:16.048Z,33.45
2018-01-08T21:37:43.547Z,34.03
2018-01-08T21:40:11.162Z,34.90
2018-01-08T21:42:38.682Z,36.78
2018-01-08T21:45:06.958Z,33.95
2018-01-08T21:47:35.231Z,33.45
2018-01-08T21:50:02.732Z,34.63
2018-01-08T21:52:30.243Z,33.80
2018-01-08T21:54:57.745Z,31.37
2018-01-08T21:57:25.255Z,32.80
2018-01-08T21:59:54.261Z,30.08
2018-01-08T22:02:21.891Z,32.03
2018-01-08T22:04:49.390Z,31.62
2018-01-08T22:07:17.656Z,30.83
2018-01-08T22:09:45.156Z,32.03
2018-01-08T22:12:12.651Z,31.48
2018-01-08T22:14:40.155Z,28.12
2018-01-08T22:17:07.656Z,28.15
2018-01-08T22:19:35.170Z,29.23
2018-01-08T22:22:02.689Z,27.40
2018-01-08T22:24:30.191Z,27.90
2018-01-08T22:26:57.735Z,28.40
2018-01-08T22:29:26.000Z,28.55
2018-01-08T22:31:54.267Z,25.60
2018-01-08T22:34:21.783Z,28.02
2018-01-08T22:36:49.284Z,26.95
2018-01-08T22:39:16.786Z,26.12
2018-01-08T22:41:44.310Z,27.42
2018-01-08T22:44:12.583Z,24.95
2018-01-08T22:46:40.083Z,29.08
2018-01-08T22:49:07.619Z,27.00
2018-01-08T22:51:35.884Z,25.48
2018-01-08T22:54:04.166Z,26.15
2018-01-08T22:56:32.433Z,27.15
2018-01-08T22:59:00.722Z,26.92
2018-01-08T23:01:29.023Z,26.70
2018-01-08T23:03:56.528Z,24.80
2018-01-08T23:06:24.039Z,27.60
2018-01-08T23:08:51.539Z,23.70
2018-01-08T23:11:19.039Z,24.35
2018-01-08T23:13:46.538Z,24.20
2018-01-08T23:16:14.057Z,22.40
2018-01-08T23:18:41.566Z,24.75
2018-01-08T23:21:09.066Z,22.52
2018-01-08T23:23:37.339Z,21.83
2018-01-08T23:26:05.612Z,23.33
2018-01-08T23:28:33.891Z,22.23
2018-01-08T23:31:02.155Z,23.05
2018-01-08T23:33:29.663Z,24.02
2018-01-08T23:35:57.182Z,22.25
2018-01-08T23:38:25.474Z,23.40
2018-01-08T23:40:52.971Z,21.35
2018-01-08T23:43:20.518Z,23.85
2018-01-08T23:45:48.012Z,22.27
2018-01-08T23:48:15.523Z,23.67
2018-01-08T23:50:43.029Z,22.83
2018-01-08T23:53:10.537Z,23.12
2018-01-08T23:55:38.062Z,21.60
2018-01-08T23:58:06.331Z,21.85
